sensor_id;sensor_type;location;lat;lon;timestamp;pressure;altitude;pressure_sealevel;temperature;humidity
72677;BME280;60755;51.374;10.662;2023-04-30T00:00:34;97670.56;;;5.07;99.82
72677;BME280;60755;51.374;10.662;2023-04-30T00:03:01;97672.53;;;5.04;99.24
72677;BME280;60755;51.374;10.662;2023-04-30T00:05:28;97682.00;;;5.05;98.22
72677;BME280;60755;51.374;10.662;2023-04-30T00:07:55;97677.41;;;4.86;98.64
72677;BME280;60755;51.374;10.662;2023-04-30T00:10:24;97677.28;;;4.73;98.82
72677;BME280;60755;51.374;10.662;2023-04-30T00:12:51;97676.56;;;4.58;99.79
72677;BME280;60755;51.374;10.662;2023-04-30T00:15:18;97679.44;;;4.48;100.00
72677;BME280;60755;51.374;10.662;2023-04-30T00:17:45;97680.00;;;4.43;100.00
72677;BME280;60755;51.374;10.662;2023-04-30T00:20:12;97683.34;;;4.37;100.00
72677;BME280;60755;51.374;10.662;2023-04-30T00:22:39;97683.72;;;4.34;100.00
72677;BME280;60755;51.374;10.662;2023-04-30T00:25:07;97679.88;;;4.30;100.00
72677;BME280;60755;51.374;10.662;2023-04-30T00:27:35;97688.28;;;4.32;100.00
72677;BME280;60755;51.374;10.662;2023-04-30T00:30:03;97697.00;;;4.25;100.00
72677;BME280;60755;51.374;10.662;2023-04-30T00:32:30;97698.56;;;4.19;100.00
72677;BME280;60755;51.374;10.662;2023-04-30T00:34:57;97697.75;;;4.18;100.00
72677;BME280;60755;51.374;10.662;2023-04-30T00:37:24;97695.69;;;4.14;100.00
72677;BME280;60755;51.374;10.662;2023-04-30T00:39:51;97691.75;;;4.18;100.00
72677;BME280;60755;51.374;10.662;2023-04-30T00:42:18;97702.88;;;4.12;100.00
72677;BME280;60755;51.374;10.662;2023-04-30T00:44:47;97700.72;;;4.01;100.00
72677;BME280;60755;51.374;10.662;2023-04-30T00:47:13;97705.47;;;3.97;100.00
72677;BME280;60755;51.374;10.662;2023-04-30T00:49:41;97704.50;;;3.83;100.00
72677;BME280;60755;51.374;10.662;2023-04-30T00:52:10;97709.50;;;4.00;100.00
72677;BME280;60755;51.374;10.662;2023-04-30T00:54:37;97703.41;;;3.92;100.00
72677;BME280;60755;51.374;10.662;2023-04-30T00:57:06;97702.97;;;3.89;100.00
72677;BME280;60755;51.374;10.662;2023-04-30T00:59:35;97709.69;;;3.83;100.00
72677;BME280;60755;51.374;10.662;2023-04-30T01:02:03;97712.75;;;3.72;100.00
72677;BME280;60755;51.374;10.662;2023-04-30T01:04:30;97713.66;;;3.64;100.00
72677;BME280;60755;51.374;10.662;2023-04-30T01:06:58;97721.53;;;3.56;100.00
72677;BME280;60755;51.374;10.662;2023-04-30T01:09:25;97718.47;;;3.53;100.00
72677;BME280;60755;51.374;10.662;2023-04-30T01:11:59;97722.41;;;3.49;100.00
72677;BME280;60755;51.374;10.662;2023-04-30T01:14:39;97719.63;;;3.50;100.00
72677;BME280;60755;51.374;10.662;2023-04-30T01:17:16;97728.13;;;3.44;100.00
72677;BME280;60755;51.374;10.662;2023-04-30T01:19:44;97728.06;;;3.38;100.00
72677;BME280;60755;51.374;10.662;2023-04-30T01:22:23;97723.56;;;3.31;100.00
72677;BME280;60755;51.374;10.662;2023-04-30T01:25:06;97725.97;;;3.33;100.00
72677;BME280;60755;51.374;10.662;2023-04-30T01:27:53;97728.81;;;3.23;100.00
72677;BME280;60755;51.374;10.662;2023-04-30T01:30:24;97720.13;;;3.16;100.00
72677;BME280;60755;51.374;10.662;2023-04-30T01:32:52;97730.69;;;3.15;100.00
72677;BME280;60755;51.374;10.662;2023-04-30T01:35:19;97728.53;;;3.18;100.00
72677;BME280;60755;51.374;10.662;2023-04-30T01:37:57;97733.91;;;3.17;100.00
72677;BME280;60755;51.374;10.662;2023-04-30T01:40:31;97722.72;;;3.16;100.00
72677;BME280;60755;51.374;10.662;2023-04-30T01:43:11;97727.91;;;3.16;100.00
72677;BME280;60755;51.374;10.662;2023-04-30T01:45:53;97731.03;;;3.12;100.00
72677;BME280;60755;51.374;10.662;2023-04-30T01:48:32;97735.16;;;3.06;100.00
72677;BME280;60755;51.374;10.662;2023-04-30T01:51:07;97744.47;;;3.15;100.00
72677;BME280;60755;51.374;10.662;2023-04-30T01:53:39;97745.00;;;3.11;100.00
72677;BME280;60755;51.374;10.662;2023-04-30T01:56:10;97743.56;;;3.08;100.00
72677;BME280;60755;51.374;10.662;2023-04-30T01:58:40;97742.69;;;3.16;100.00
72677;BME280;60755;51.374;10.662;2023-04-30T02:01:27;97746.38;;;3.21;100.00
72677;BME280;60755;51.374;10.662;2023-04-30T02:03:54;97748.09;;;3.29;100.00
72677;BME280;60755;51.374;10.662;2023-04-30T02:06:22;97737.59;;;3.22;100.00
72677;BME280;60755;51.374;10.662;2023-04-30T02:08:52;97745.03;;;3.25;100.00
72677;BME280;60755;51.374;10.662;2023-04-30T02:11:20;97749.13;;;3.20;100.00
72677;BME280;60755;51.374;10.662;2023-04-30T02:13:50;97750.84;;;3.27;100.00
72677;BME280;60755;51.374;10.662;2023-04-30T02:16:17;97755.34;;;3.33;100.00
72677;BME280;60755;51.374;10.662;2023-04-30T02:18:44;97748.25;;;3.27;100.00
72677;BME280;60755;51.374;10.662;2023-04-30T02:21:11;97749.97;;;3.35;100.00
72677;BME280;60755;51.374;10.662;2023-04-30T02:23:39;97755.13;;;3.20;100.00
72677;BME280;60755;51.374;10.662;2023-04-30T02:26:07;97754.91;;;3.30;100.00
72677;BME280;60755;51.374;10.662;2023-04-30T02:28:34;97758.63;;;3.27;100.00
72677;BME280;60755;51.374;10.662;2023-04-30T02:31:03;97760.31;;;3.20;100.00
72677;BME280;60755;51.374;10.662;2023-04-30T02:33:30;97763.63;;;3.14;100.00
72677;BME280;60755;51.374;10.662;2023-04-30T02:35:58;97770.16;;;3.10;100.00
72677;BME280;60755;51.374;10.662;2023-04-30T02:38:25;97766.56;;;3.11;100.00
72677;BME280;60755;51.374;10.662;2023-04-30T02:40:52;97772.81;;;3.02;100.00
72677;BME280;60755;51.374;10.662;2023-04-30T02:43:20;97771.38;;;2.99;100.00
72677;BME280;60755;51.374;10.662;2023-04-30T02:45:47;97771.88;;;2.95;100.00
72677;BME280;60755;51.374;10.662;2023-04-30T02:48:15;97770.25;;;2.94;100.00
72677;BME280;60755;51.374;10.662;2023-04-30T02:50:43;97779.53;;;2.88;100.00
72677;BME280;60755;51.374;10.662;2023-04-30T02:53:10;97773.59;;;2.79;100.00
72677;BME280;60755;51.374;10.662;2023-04-30T02:55:37;97772.78;;;2.79;100.00
72677;BME280;60755;51.374;10.662;2023-04-30T02:58:04;97770.38;;;2.77;100.00
72677;BME280;60755;51.374;10.662;2023-04-30T03:00:32;97773.22;;;2.91;100.00
72677;BME280;60755;51.374;10.662;2023-04-30T03:02:59;97775.81;;;2.91;100.00
72677;BME280;60755;51.374;10.662;2023-04-30T03:05:29;97776.84;;;2.82;100.00
72677;BME280;60755;51.374;10.662;2023-04-30T03:07:56;97773.31;;;2.74;100.00
72677;BME280;60755;51.374;10.662;2023-04-30T03:10:23;97776.38;;;2.78;100.00
72677;BME280;60755;51.374;10.662;2023-04-30T03:12:51;97769.25;;;2.72;100.00
72677;BME280;60755;51.374;10.662;2023-04-30T03:15:19;97770.13;;;2.64;100.00
72677;BME280;60755;51.374;10.662;2023-04-30T03:17:46;97775.47;;;2.63;100.00
72677;BME280;60755;51.374;10.662;2023-04-30T03:20:13;97778.25;;;2.61;100.00
72677;BME280;60755;51.374;10.662;2023-04-30T03:22:42;97775.19;;;2.58;100.00
72677;BME280;60755;51.374;10.662;2023-04-30T03:25:10;97773.56;;;2.57;100.00
72677;BME280;60755;51.374;10.662;2023-04-30T03:27:37;97776.31;;;2.55;100.00
72677;BME280;60755;51.374;10.662;2023-04-30T03:30:05;97781.88;;;2.52;100.00
72677;BME280;60755;51.374;10.662;2023-04-30T03:32:33;97788.22;;;2.49;100.00
72677;BME280;60755;51.374;10.662;2023-04-30T03:35:00;97781.72;;;2.45;100.00
72677;BME280;60755;51.374;10.662;2023-04-30T03:37:28;97792.91;;;2.46;100.00
72677;BME280;60755;51.374;10.662;2023-04-30T03:39:56;97791.00;;;2.40;100.00
72677;BME280;60755;51.374;10.662;2023-04-30T03:42:24;97790.34;;;2.38;100.00
72677;BME280;60755;51.374;10.662;2023-04-30T03:44:51;97801.38;;;2.40;100.00
72677;BME280;60755;51.374;10.662;2023-04-30T03:47:18;97800.41;;;2.41;100.00
72677;BME280;60755;51.374;10.662;2023-04-30T03:49:45;97803.63;;;2.43;100.00
72677;BME280;60755;51.374;10.662;2023-04-30T03:52:19;97809.81;;;2.42;100.00
72677;BME280;60755;51.374;10.662;2023-04-30T03:54:47;97816.25;;;2.46;100.00
72677;BME280;60755;51.374;10.662;2023-04-30T03:57:19;97815.31;;;2.39;100.00
72677;BME280;60755;51.374;10.662;2023-04-30T03:59:48;97812.88;;;2.37;100.00
72677;BME280;60755;51.374;10.662;2023-04-30T04:02:15;97817.72;;;2.40;100.00
72677;BME280;60755;51.374;10.662;2023-04-30T04:04:43;97818.22;;;2.44;100.00
72677;BME280;60755;51.374;10.662;2023-04-30T04:07:10;97817.56;;;2.50;100.00
72677;BME280;60755;51.374;10.662;2023-04-30T04:09:38;97822.06;;;2.48;100.00
72677;BME280;60755;51.374;10.662;2023-04-30T04:12:05;97825.16;;;2.51;100.00
72677;BME280;60755;51.374;10.662;2023-04-30T04:14:33;97825.34;;;2.50;100.00
72677;BME280;60755;51.374;10.662;2023-04-30T04:17:02;97835.88;;;2.79;100.00
72677;BME280;60755;51.374;10.662;2023-04-30T04:19:30;97835.59;;;4.18;100.00
72677;BME280;60755;51.374;10.662;2023-04-30T04:21:58;97836.41;;;5.42;95.17
72677;BME280;60755;51.374;10.662;2023-04-30T04:24:25;97841.44;;;6.56;85.85
72677;BME280;60755;51.374;10.662;2023-04-30T04:26:53;97832.25;;;8.00;77.62
72677;BME280;60755;51.374;10.662;2023-04-30T04:29:20;97840.25;;;8.96;72.29
72677;BME280;60755;51.374;10.662;2023-04-30T04:31:49;97842.38;;;9.76;69.03
72677;BME280;60755;51.374;10.662;2023-04-30T04:34:17;97842.75;;;10.48;65.28
72677;BME280;60755;51.374;10.662;2023-04-30T04:36:45;97842.41;;;11.41;62.22
72677;BME280;60755;51.374;10.662;2023-04-30T04:39:13;97847.81;;;11.69;60.13
72677;BME280;60755;51.374;10.662;2023-04-30T04:41:40;97849.03;;;12.32;61.17
72677;BME280;60755;51.374;10.662;2023-04-30T04:44:07;97856.44;;;12.70;57.18
72677;BME280;60755;51.374;10.662;2023-04-30T04:46:35;97851.78;;;13.01;57.51
72677;BME280;60755;51.374;10.662;2023-04-30T04:49:08;97852.00;;;13.39;55.35
72677;BME280;60755;51.374;10.662;2023-04-30T04:51:35;97857.72;;;13.98;55.58
72677;BME280;60755;51.374;10.662;2023-04-30T04:54:04;97860.47;;;14.42;53.70
72677;BME280;60755;51.374;10.662;2023-04-30T04:56:32;97853.66;;;14.85;51.79
72677;BME280;60755;51.374;10.662;2023-04-30T04:59:00;97857.28;;;14.79;51.56
72677;BME280;60755;51.374;10.662;2023-04-30T05:01:27;97856.47;;;15.49;50.70
72677;BME280;60755;51.374;10.662;2023-04-30T05:03:54;97862.81;;;15.48;51.19
72677;BME280;60755;51.374;10.662;2023-04-30T05:06:23;97863.47;;;15.60;49.64
72677;BME280;60755;51.374;10.662;2023-04-30T05:08:50;97858.94;;;15.88;48.15
72677;BME280;60755;51.374;10.662;2023-04-30T05:11:17;97859.81;;;16.36;47.30
72677;BME280;60755;51.374;10.662;2023-04-30T05:13:44;97864.72;;;17.12;45.01
72677;BME280;60755;51.374;10.662;2023-04-30T05:16:12;97868.72;;;17.19;44.89
72677;BME280;60755;51.374;10.662;2023-04-30T05:18:39;97856.53;;;17.39;44.30
72677;BME280;60755;51.374;10.662;2023-04-30T05:21:07;97860.88;;;17.70;44.76
72677;BME280;60755;51.374;10.662;2023-04-30T05:23:35;97860.84;;;18.11;42.83
72677;BME280;60755;51.374;10.662;2023-04-30T05:26:03;97865.88;;;18.48;42.44
72677;BME280;60755;51.374;10.662;2023-04-30T05:28:30;97860.78;;;18.67;41.95
72677;BME280;60755;51.374;10.662;2023-04-30T05:30:58;97868.09;;;19.00;42.01
72677;BME280;60755;51.374;10.662;2023-04-30T05:33:25;97869.31;;;19.28;41.34
72677;BME280;60755;51.374;10.662;2023-04-30T05:35:53;97875.69;;;19.33;40.99
72677;BME280;60755;51.374;10.662;2023-04-30T05:38:20;97872.63;;;19.54;40.36
72677;BME280;60755;51.374;10.662;2023-04-30T05:40:48;97870.53;;;19.91;40.39
72677;BME280;60755;51.374;10.662;2023-04-30T05:43:15;97876.50;;;18.53;42.15
72677;BME280;60755;51.374;10.662;2023-04-30T05:45:43;97884.78;;;20.10;39.78
72677;BME280;60755;51.374;10.662;2023-04-30T05:48:10;97878.03;;;20.18;40.26
72677;BME280;60755;51.374;10.662;2023-04-30T05:50:37;97876.63;;;20.25;41.20
72677;BME280;60755;51.374;10.662;2023-04-30T05:53:04;97873.16;;;20.25;39.19
72677;BME280;60755;51.374;10.662;2023-04-30T05:55:31;97884.44;;;20.75;38.03
72677;BME280;60755;51.374;10.662;2023-04-30T05:58:00;97880.63;;;20.81;39.07
72677;BME280;60755;51.374;10.662;2023-04-30T06:00:28;97878.22;;;21.27;38.50
72677;BME280;60755;51.374;10.662;2023-04-30T06:02:56;97875.59;;;21.78;37.00
72677;BME280;60755;51.374;10.662;2023-04-30T06:05:23;97868.56;;;22.01;36.76
72677;BME280;60755;51.374;10.662;2023-04-30T06:07:50;97878.06;;;21.56;37.30
72677;BME280;60755;51.374;10.662;2023-04-30T06:10:17;97878.91;;;20.37;39.02
72677;BME280;60755;51.374;10.662;2023-04-30T06:12:44;97883.38;;;20.18;40.80
72677;BME280;60755;51.374;10.662;2023-04-30T06:15:13;97878.34;;;20.69;38.98
72677;BME280;60755;51.374;10.662;2023-04-30T06:17:40;97868.16;;;19.45;40.04
72677;BME280;60755;51.374;10.662;2023-04-30T06:20:08;97892.44;;;15.67;48.74
72677;BME280;60755;51.374;10.662;2023-04-30T06:22:35;97890.91;;;13.61;54.19
72677;BME280;60755;51.374;10.662;2023-04-30T06:25:03;97888.13;;;15.39;51.35
72677;BME280;60755;51.374;10.662;2023-04-30T06:27:30;97889.25;;;17.54;47.49
72677;BME280;60755;51.374;10.662;2023-04-30T06:29:58;97893.41;;;17.10;46.67
72677;BME280;60755;51.374;10.662;2023-04-30T06:32:27;97900.31;;;14.69;52.12
72677;BME280;60755;51.374;10.662;2023-04-30T06:34:54;97900.72;;;15.27;51.83
72677;BME280;60755;51.374;10.662;2023-04-30T06:37:22;97901.00;;;16.91;48.76
72677;BME280;60755;51.374;10.662;2023-04-30T06:39:49;97891.03;;;18.96;46.14
72677;BME280;60755;51.374;10.662;2023-04-30T06:42:17;97890.91;;;20.10;42.61
72677;BME280;60755;51.374;10.662;2023-04-30T06:44:44;97893.53;;;18.62;45.74
72677;BME280;60755;51.374;10.662;2023-04-30T06:47:12;97893.31;;;17.87;48.33
72677;BME280;60755;51.374;10.662;2023-04-30T06:49:40;97888.47;;;20.43;41.51
72677;BME280;60755;51.374;10.662;2023-04-30T06:52:07;97884.69;;;19.86;40.68
72677;BME280;60755;51.374;10.662;2023-04-30T06:54:35;97885.88;;;20.38;40.85
72677;BME280;60755;51.374;10.662;2023-04-30T06:57:02;97890.16;;;20.34;42.26
72677;BME280;60755;51.374;10.662;2023-04-30T06:59:29;97887.19;;;17.87;45.35
72677;BME280;60755;51.374;10.662;2023-04-30T07:01:56;97892.69;;;17.45;48.15
72677;BME280;60755;51.374;10.662;2023-04-30T07:04:23;97886.78;;;16.65;49.76
72677;BME280;60755;51.374;10.662;2023-04-30T07:06:52;97885.09;;;15.03;53.62
72677;BME280;60755;51.374;10.662;2023-04-30T07:09:19;97892.09;;;15.15;56.15
72677;BME280;60755;51.374;10.662;2023-04-30T07:11:46;97895.34;;;15.44;54.29
72677;BME280;60755;51.374;10.662;2023-04-30T07:14:14;97900.25;;;14.47;56.33
72677;BME280;60755;51.374;10.662;2023-04-30T07:16:41;97896.44;;;13.31;59.73
72677;BME280;60755;51.374;10.662;2023-04-30T07:19:08;97898.22;;;13.87;60.58
72677;BME280;60755;51.374;10.662;2023-04-30T07:21:35;97904.81;;;15.61;53.72
72677;BME280;60755;51.374;10.662;2023-04-30T07:24:04;97901.84;;;14.87;54.38
72677;BME280;60755;51.374;10.662;2023-04-30T07:26:31;97905.75;;;15.01;55.74
72677;BME280;60755;51.374;10.662;2023-04-30T07:28:59;97900.72;;;14.27;56.95
72677;BME280;60755;51.374;10.662;2023-04-30T07:31:26;97897.66;;;14.91;55.64
72677;BME280;60755;51.374;10.662;2023-04-30T07:33:53;97892.59;;;15.60;52.23
72677;BME280;60755;51.374;10.662;2023-04-30T07:36:20;97894.47;;;15.11;52.58
72677;BME280;60755;51.374;10.662;2023-04-30T07:38:48;97890.38;;;18.20;48.00
72677;BME280;60755;51.374;10.662;2023-04-30T07:41:16;97892.41;;;20.80;39.80
72677;BME280;60755;51.374;10.662;2023-04-30T07:43:44;97890.06;;;21.40;38.48
72677;BME280;60755;51.374;10.662;2023-04-30T07:46:11;97886.78;;;23.06;34.78
72677;BME280;60755;51.374;10.662;2023-04-30T07:48:38;97886.97;;;23.23;36.17
72677;BME280;60755;51.374;10.662;2023-04-30T07:51:06;97887.97;;;23.00;36.90
72677;BME280;60755;51.374;10.662;2023-04-30T07:53:33;97889.91;;;23.85;32.23
72677;BME280;60755;51.374;10.662;2023-04-30T07:56:00;97885.06;;;23.96;33.06
72677;BME280;60755;51.374;10.662;2023-04-30T07:58:29;97895.06;;;21.65;40.52
72677;BME280;60755;51.374;10.662;2023-04-30T08:00:56;97887.25;;;23.71;36.21
72677;BME280;60755;51.374;10.662;2023-04-30T08:03:23;97890.16;;;22.70;37.81
72677;BME280;60755;51.374;10.662;2023-04-30T08:05:51;97881.81;;;23.63;34.00
72677;BME280;60755;51.374;10.662;2023-04-30T08:08:18;97889.75;;;21.22;38.04
72677;BME280;60755;51.374;10.662;2023-04-30T08:10:45;97898.38;;;17.94;44.61
72677;BME280;60755;51.374;10.662;2023-04-30T08:13:13;97886.59;;;15.97;50.28
72677;BME280;60755;51.374;10.662;2023-04-30T08:15:41;97897.09;;;14.89;55.25
72677;BME280;60755;51.374;10.662;2023-04-30T08:18:09;97901.31;;;14.46;55.84
72677;BME280;60755;51.374;10.662;2023-04-30T08:20:36;97892.16;;;14.54;59.13
72677;BME280;60755;51.374;10.662;2023-04-30T08:23:03;97898.66;;;14.46;56.18
72677;BME280;60755;51.374;10.662;2023-04-30T08:25:31;97899.41;;;13.63;60.15
72677;BME280;60755;51.374;10.662;2023-04-30T08:27:58;97899.09;;;13.59;58.06
72677;BME280;60755;51.374;10.662;2023-04-30T08:30:25;97891.22;;;13.48;59.01
72677;BME280;60755;51.374;10.662;2023-04-30T08:32:54;97900.03;;;13.25;59.93
72677;BME280;60755;51.374;10.662;2023-04-30T08:35:21;97897.56;;;12.95;58.80
72677;BME280;60755;51.374;10.662;2023-04-30T08:37:48;97897.19;;;13.03;59.23
72677;BME280;60755;51.374;10.662;2023-04-30T08:40:15;97902.09;;;12.71;61.14
72677;BME280;60755;51.374;10.662;2023-04-30T08:42:45;97901.53;;;12.33;60.89
72677;BME280;60755;51.374;10.662;2023-04-30T08:45:17;97898.00;;;12.51;60.81
72677;BME280;60755;51.374;10.662;2023-04-30T08:47:45;97890.63;;;12.65;62.54
72677;BME280;60755;51.374;10.662;2023-04-30T08:50:15;97896.94;;;12.41;62.06
72677;BME280;60755;51.374;10.662;2023-04-30T08:52:42;97897.03;;;11.87;60.24
72677;BME280;60755;51.374;10.662;2023-04-30T08:55:09;97891.28;;;11.90;63.13
72677;BME280;60755;51.374;10.662;2023-04-30T08:57:37;97898.25;;;11.85;63.09
72677;BME280;60755;51.374;10.662;2023-04-30T09:00:05;97896.38;;;12.15;66.73
72677;BME280;60755;51.374;10.662;2023-04-30T09:02:33;97885.13;;;12.31;64.16
72677;BME280;60755;51.374;10.662;2023-04-30T09:05:00;97888.25;;;12.52;65.66
72677;BME280;60755;51.374;10.662;2023-04-30T09:07:31;97888.66;;;12.72;65.64
72677;BME280;60755;51.374;10.662;2023-04-30T09:09:59;97879.47;;;12.86;63.43
72677;BME280;60755;51.374;10.662;2023-04-30T09:12:27;97889.00;;;12.76;61.63
72677;BME280;60755;51.374;10.662;2023-04-30T09:14:59;97886.81;;;12.84;64.68
72677;BME280;60755;51.374;10.662;2023-04-30T09:17:27;97886.63;;;12.51;64.00
72677;BME280;60755;51.374;10.662;2023-04-30T09:19:54;97891.28;;;12.84;61.00
72677;BME280;60755;51.374;10.662;2023-04-30T09:22:34;97899.38;;;13.06;59.66
72677;BME280;60755;51.374;10.662;2023-04-30T09:25:02;97890.75;;;13.10;60.34
72677;BME280;60755;51.374;10.662;2023-04-30T09:27:29;97888.94;;;12.99;60.18
72677;BME280;60755;51.374;10.662;2023-04-30T09:29:57;97894.81;;;12.89;60.22
72677;BME280;60755;51.374;10.662;2023-04-30T09:32:24;97888.78;;;12.77;60.00
72677;BME280;60755;51.374;10.662;2023-04-30T09:34:52;97883.22;;;13.02;60.59
72677;BME280;60755;51.374;10.662;2023-04-30T09:37:19;97874.94;;;13.10;61.25
72677;BME280;60755;51.374;10.662;2023-04-30T09:39:49;97877.13;;;13.02;62.25
72677;BME280;60755;51.374;10.662;2023-04-30T09:42:17;97875.94;;;13.21;62.34
72677;BME280;60755;51.374;10.662;2023-04-30T09:44:45;97881.88;;;13.28;62.08
72677;BME280;60755;51.374;10.662;2023-04-30T09:47:14;97880.78;;;13.24;59.21
72677;BME280;60755;51.374;10.662;2023-04-30T09:49:42;97880.44;;;13.66;60.85
72677;BME280;60755;51.374;10.662;2023-04-30T09:52:10;97876.13;;;13.77;59.71
72677;BME280;60755;51.374;10.662;2023-04-30T09:54:38;97871.09;;;13.75;59.19
72677;BME280;60755;51.374;10.662;2023-04-30T09:57:09;97870.69;;;14.00;60.41
72677;BME280;60755;51.374;10.662;2023-04-30T09:59:37;97874.00;;;13.90;60.08
72677;BME280;60755;51.374;10.662;2023-04-30T10:02:06;97876.00;;;13.55;59.99
72677;BME280;60755;51.374;10.662;2023-04-30T10:04:37;97868.97;;;13.43;61.93
72677;BME280;60755;51.374;10.662;2023-04-30T10:07:08;97873.59;;;13.36;62.07
72677;BME280;60755;51.374;10.662;2023-04-30T10:09:39;97869.63;;;13.22;62.23
72677;BME280;60755;51.374;10.662;2023-04-30T10:12:13;97873.59;;;12.96;61.11
72677;BME280;60755;51.374;10.662;2023-04-30T10:14:47;97869.88;;;12.10;63.23
72677;BME280;60755;51.374;10.662;2023-04-30T10:17:18;97871.38;;;12.06;63.21
72677;BME280;60755;51.374;10.662;2023-04-30T10:19:51;97864.53;;;11.63;63.89
72677;BME280;60755;51.374;10.662;2023-04-30T10:22:21;97862.31;;;12.02;63.31
72677;BME280;60755;51.374;10.662;2023-04-30T10:24:48;97865.06;;;12.54;62.68
72677;BME280;60755;51.374;10.662;2023-04-30T10:27:17;97862.69;;;12.52;61.17
72677;BME280;60755;51.374;10.662;2023-04-30T10:29:46;97855.69;;;12.23;61.99
72677;BME280;60755;51.374;10.662;2023-04-30T10:32:13;97858.09;;;13.00;59.84
72677;BME280;60755;51.374;10.662;2023-04-30T10:34:47;97853.34;;;13.13;58.15
72677;BME280;60755;51.374;10.662;2023-04-30T10:37:21;97844.06;;;13.11;58.37
72677;BME280;60755;51.374;10.662;2023-04-30T10:39:50;97845.66;;;13.12;60.07
72677;BME280;60755;51.374;10.662;2023-04-30T10:42:19;97828.06;;;13.29;60.39
72677;BME280;60755;51.374;10.662;2023-04-30T10:44:46;97830.94;;;12.87;55.78
72677;BME280;60755;51.374;10.662;2023-04-30T10:47:13;97823.41;;;12.79;55.86
72677;BME280;60755;51.374;10.662;2023-04-30T10:49:44;97827.81;;;13.02;58.57
72677;BME280;60755;51.374;10.662;2023-04-30T10:52:12;97830.53;;;13.07;55.80
72677;BME280;60755;51.374;10.662;2023-04-30T10:54:48;97819.91;;;12.62;54.41
72677;BME280;60755;51.374;10.662;2023-04-30T10:57:16;97817.75;;;12.87;53.53
72677;BME280;60755;51.374;10.662;2023-04-30T10:59:52;97822.09;;;12.94;54.11
72677;BME280;60755;51.374;10.662;2023-04-30T11:02:19;97823.09;;;13.04;55.42
72677;BME280;60755;51.374;10.662;2023-04-30T11:05:08;97825.00;;;12.80;54.81
72677;BME280;60755;51.374;10.662;2023-04-30T11:07:36;97821.91;;;12.83;53.62
72677;BME280;60755;51.374;10.662;2023-04-30T11:10:06;97828.78;;;12.84;54.52
72677;BME280;60755;51.374;10.662;2023-04-30T11:12:34;97815.31;;;12.98;53.19
72677;BME280;60755;51.374;10.662;2023-04-30T11:15:12;97819.84;;;12.74;53.21
72677;BME280;60755;51.374;10.662;2023-04-30T11:17:39;97822.75;;;13.01;53.55
72677;BME280;60755;51.374;10.662;2023-04-30T11:20:11;97810.88;;;12.86;53.75
72677;BME280;60755;51.374;10.662;2023-04-30T11:22:38;97814.78;;;13.24;52.12
72677;BME280;60755;51.374;10.662;2023-04-30T11:25:07;97813.84;;;13.19;51.42
72677;BME280;60755;51.374;10.662;2023-04-30T11:27:36;97818.66;;;12.93;52.69
72677;BME280;60755;51.374;10.662;2023-04-30T11:30:10;97805.88;;;12.73;52.65
72677;BME280;60755;51.374;10.662;2023-04-30T11:32:42;97806.19;;;13.17;54.15
72677;BME280;60755;51.374;10.662;2023-04-30T11:35:10;97806.50;;;13.49;54.61
72677;BME280;60755;51.374;10.662;2023-04-30T11:37:39;97807.59;;;13.70;52.97
72677;BME280;60755;51.374;10.662;2023-04-30T11:40:09;97804.91;;;13.65;53.86
72677;BME280;60755;51.374;10.662;2023-04-30T11:42:37;97812.09;;;13.69;53.58
72677;BME280;60755;51.374;10.662;2023-04-30T11:45:07;97810.78;;;13.10;51.75
72677;BME280;60755;51.374;10.662;2023-04-30T11:47:40;97806.56;;;13.09;52.36
72677;BME280;60755;51.374;10.662;2023-04-30T11:50:08;97804.00;;;13.14;53.64
72677;BME280;60755;51.374;10.662;2023-04-30T11:52:35;97804.91;;;13.20;53.59
72677;BME280;60755;51.374;10.662;2023-04-30T11:55:15;97798.34;;;13.22;51.32
72677;BME280;60755;51.374;10.662;2023-04-30T11:57:44;97794.38;;;13.36;52.25
72677;BME280;60755;51.374;10.662;2023-04-30T12:00:13;97788.66;;;13.39;52.25
72677;BME280;60755;51.374;10.662;2023-04-30T12:02:43;97788.25;;;13.81;52.87
72677;BME280;60755;51.374;10.662;2023-04-30T12:05:15;97787.28;;;13.70;51.93
72677;BME280;60755;51.374;10.662;2023-04-30T12:07:47;97795.03;;;13.94;52.96
72677;BME280;60755;51.374;10.662;2023-04-30T12:10:14;97784.06;;;13.85;49.68
72677;BME280;60755;51.374;10.662;2023-04-30T12:12:42;97792.16;;;13.79;52.81
72677;BME280;60755;51.374;10.662;2023-04-30T12:15:11;97781.91;;;13.99;51.63
72677;BME280;60755;51.374;10.662;2023-04-30T12:17:38;97783.19;;;13.96;50.97
72677;BME280;60755;51.374;10.662;2023-04-30T12:20:08;97781.97;;;13.37;52.22
72677;BME280;60755;51.374;10.662;2023-04-30T12:22:35;97779.53;;;13.81;52.75
72677;BME280;60755;51.374;10.662;2023-04-30T12:25:05;97782.47;;;13.84;51.83
72677;BME280;60755;51.374;10.662;2023-04-30T12:27:34;97797.03;;;13.70;54.79
72677;BME280;60755;51.374;10.662;2023-04-30T12:30:04;97780.69;;;13.23;54.08
72677;BME280;60755;51.374;10.662;2023-04-30T12:32:38;97785.25;;;12.99;52.34
72677;BME280;60755;51.374;10.662;2023-04-30T12:35:08;97783.63;;;12.98;53.55
72677;BME280;60755;51.374;10.662;2023-04-30T12:37:35;97786.38;;;13.03;54.11
72677;BME280;60755;51.374;10.662;2023-04-30T12:40:08;97784.09;;;13.52;53.59
72677;BME280;60755;51.374;10.662;2023-04-30T12:42:35;97779.97;;;13.94;52.56
72677;BME280;60755;51.374;10.662;2023-04-30T12:45:03;97778.28;;;14.27;52.34
72677;BME280;60755;51.374;10.662;2023-04-30T12:47:30;97775.28;;;14.57;50.46
72677;BME280;60755;51.374;10.662;2023-04-30T12:49:57;97770.22;;;14.55;50.91
72677;BME280;60755;51.374;10.662;2023-04-30T12:52:25;97774.34;;;14.68;50.09
72677;BME280;60755;51.374;10.662;2023-04-30T12:54:52;97768.94;;;14.58;50.36
72677;BME280;60755;51.374;10.662;2023-04-30T12:57:20;97762.97;;;14.46;54.31